createdAt,value
2023-04-28T00:00:51.867Z,99581.87
2023-04-28T00:01:54.561Z,99584.47
2023-04-28T00:02:57.529Z,99589.34
2023-04-28T00:04:00.654Z,99589.34
2023-04-28T00:05:03.442Z,99585.69
2023-04-28T00:06:06.487Z,99585.81
2023-04-28T00:07:09.197Z,99580.49
2023-04-28T00:08:11.331Z,99587.45
2023-04-28T00:09:14.072Z,99589.23
2023-04-28T00:10:16.771Z,99589.49
2023-04-28T00:11:19.169Z,99591.22
2023-04-28T00:12:22.370Z,99584.27
2023-04-28T00:13:24.732Z,99593.86
2023-04-28T00:14:26.957Z,99590.27
2023-04-28T00:15:30.068Z,99593.80
2023-04-28T00:16:32.392Z,99595.44
2023-04-28T00:17:34.932Z,99604.14
2023-04-28T00:18:37.312Z,99595.75
2023-04-28T00:19:39.600Z,99603.57
2023-04-28T00:20:43.231Z,99605.98
2023-04-28T00:21:45.603Z,99594.69
2023-04-28T00:22:49.027Z,99598.20
2023-04-28T00:23:51.439Z,99600.06
2023-04-28T00:24:53.743Z,99600.06
2023-04-28T00:25:56.943Z,99598.40
2023-04-28T00:26:59.226Z,99605.23
2023-04-28T00:28:02.288Z,99599.03
2023-04-28T00:29:04.629Z,99606.73
2023-04-28T00:30:08.771Z,99605.23
2023-04-28T00:31:12.697Z,99608.75
2023-04-28T00:32:15.813Z,99600.06
2023-04-28T00:33:18.088Z,99602.51
2023-04-28T00:34:20.897Z,99607.68
2023-04-28T00:35:23.235Z,99607.88
2023-04-28T00:36:26.146Z,99601.77
2023-04-28T00:37:29.758Z,99617.27
2023-04-28T00:38:31.978Z,99608.91
2023-04-28T00:39:34.606Z,99598.48
2023-04-28T00:40:38.950Z,99602.85
2023-04-28T00:41:41.682Z,99605.55
2023-04-28T00:42:44.368Z,99608.91
2023-04-28T00:43:48.905Z,99618.42
2023-04-28T00:44:52.328Z,99618.42
2023-04-28T00:45:55.841Z,99615.78
2023-04-28T00:46:59.248Z,99619.23
2023-04-28T00:48:02.414Z,99613.91
2023-04-28T00:49:05.451Z,99619.84
2023-04-28T00:50:10.219Z,99625.84
2023-04-28T00:51:13.054Z,99621.47
2023-04-28T00:52:15.972Z,99635.23
2023-04-28T00:53:18.556Z,99637.34
2023-04-28T00:54:21.181Z,99633.88
2023-04-28T00:55:26.022Z,99628.56
2023-04-28T00:56:32.997Z,99631.91
2023-04-28T00:57:36.685Z,99634.59
2023-04-28T00:58:39.613Z,99632.93
2023-04-28T00:59:42.028Z,99636.46
2023-04-28T01:00:44.561Z,99640.80
2023-04-28T01:01:46.869Z,99645.83
2023-04-28T01:02:52.209Z,99640.55
2023-04-28T01:03:55.549Z,99641.44
2023-04-28T01:04:59.748Z,99653.78
2023-04-28T01:06:02.805Z,99643.44
2023-04-28T01:07:05.482Z,99641.55
2023-04-28T01:08:07.916Z,99631.20
2023-04-28T01:09:10.655Z,99645.11
2023-04-28T01:10:16.114Z,99644.47
2023-04-28T01:11:19.194Z,99646.05
2023-04-28T01:12:41.592Z,99643.44
2023-04-28T01:13:44.260Z,99650.28
2023-04-28T01:14:47.865Z,99648.77
2023-04-28T01:15:50.965Z,99650.58
2023-04-28T01:16:54.166Z,99650.39
2023-04-28T01:17:57.959Z,99646.11
2023-04-28T01:19:01.097Z,99646.11
2023-04-28T01:20:05.469Z,99644.27
2023-04-28T01:21:07.839Z,99654.70
2023-04-28T01:22:12.268Z,99654.89
2023-04-28T01:23:15.913Z,99650.58
2023-04-28T01:24:19.089Z,99648.94
2023-04-28T01:25:21.716Z,99646.25
2023-04-28T01:26:24.429Z,99638.44
2023-04-28T01:27:26.530Z,99652.36
2023-04-28T01:28:28.773Z,99649.89
2023-04-28T01:29:31.107Z,99648.94
2023-04-28T01:30:35.043Z,99647.11
2023-04-28T01:31:37.635Z,99643.44
2023-04-28T01:32:40.351Z,99645.22
2023-04-28T01:33:42.754Z,99669.64
2023-04-28T01:34:45.282Z,99649.89
2023-04-28T01:35:48.002Z,99646.30
2023-04-28T01:36:51.986Z,99650.39
2023-04-28T01:37:54.386Z,99641.75
2023-04-28T01:38:56.829Z,99646.91
2023-04-28T01:39:59.156Z,99644.83
2023-04-28T01:41:02.607Z,99651.89
2023-04-28T01:42:05.509Z,99653.17
2023-04-28T01:43:09.083Z,99648.97
2023-04-28T01:44:12.631Z,99643.04
2023-04-28T01:45:15.467Z,99651.66
2023-04-28T01:46:18.809Z,99651.53
2023-04-28T01:47:21.324Z,99648.19
2023-04-28T01:48:23.939Z,99649.16
2023-04-28T01:49:26.818Z,99640.70
2023-04-28T01:50:29.360Z,99645.88
2023-04-28T01:51:32.276Z,99650.96
2023-04-28T01:52:35.786Z,99642.21
2023-04-28T01:53:38.195Z,99641.27
2023-04-28T01:54:41.015Z,99650.77
2023-04-28T01:55:43.236Z,99647.38
2023-04-28T01:56:46.210Z,99650.85
2023-04-28T01:57:50.294Z,99652.55
2023-04-28T01:58:53.077Z,99648.22
2023-04-28T01:59:55.392Z,99652.61
2023-04-28T02:00:58.925Z,99647.38
2023-04-28T02:02:02.075Z,99648.27
2023-04-28T02:03:05.159Z,99644.73
2023-04-28T02:04:09.702Z,99643.16
2023-04-28T02:05:12.656Z,99657.80
2023-04-28T02:06:15.754Z,99651.88
2023-04-28T02:07:18.849Z,99658.84
2023-04-28T02:08:21.233Z,99654.44
2023-04-28T02:09:23.454Z,99646.68
2023-04-28T02:10:26.639Z,99651.85
2023-04-28T02:11:29.989Z,99654.33
2023-04-28T02:12:33.214Z,99654.52
2023-04-28T02:13:36.195Z,99659.60
2023-04-28T02:14:38.936Z,99654.44
2023-04-28T02:15:42.678Z,99648.40
2023-04-28T02:16:45.514Z,99648.59
2023-04-28T02:17:48.649Z,99654.62
2023-04-28T02:18:51.316Z,99658.92
2023-04-28T02:19:58.051Z,99654.38
2023-04-28T02:21:11.810Z,99641.40
2023-04-28T02:22:16.760Z,99644.09
2023-04-28T02:23:19.022Z,99657.80
2023-04-28T02:24:21.601Z,99644.98
2023-04-28T02:25:26.021Z,99651.15
2023-04-28T02:26:28.732Z,99644.41
2023-04-28T02:27:31.163Z,99655.56
2023-04-28T02:28:34.054Z,99652.25
2023-04-28T02:29:36.359Z,99649.64
2023-04-28T02:30:39.148Z,99654.62
2023-04-28T02:31:41.703Z,99646.06
2023-04-28T02:32:44.166Z,99649.45
2023-04-28T02:33:47.153Z,99649.64
2023-04-28T02:34:54.851Z,99659.97
2023-04-28T02:35:59.861Z,99657.34
2023-04-28T02:37:02.592Z,99664.15
2023-04-28T02:38:05.177Z,99662.58
2023-04-28T02:39:07.463Z,99669.45
2023-04-28T02:40:10.720Z,99660.88
2023-04-28T02:41:15.050Z,99666.99
2023-04-28T02:42:17.563Z,99666.21
2023-04-28T02:43:20.083Z,99673.78
2023-04-28T02:44:22.378Z,99673.86
2023-04-28T02:45:25.022Z,99674.61
2023-04-28T02:46:27.941Z,99668.43
2023-04-28T02:47:30.540Z,99670.31
2023-04-28T02:48:35.184Z,99671.91
2023-04-28T02:49:37.591Z,99688.22
2023-04-28T02:50:40.680Z,99670.15
2023-04-28T02:51:43.088Z,99674.30
2023-04-28T02:52:47.080Z,99679.59
2023-04-28T02:53:50.156Z,99674.48
2023-04-28T02:54:54.675Z,99671.91
2023-04-28T02:55:56.967Z,99677.91
2023-04-28T02:56:59.699Z,99674.43
2023-04-28T02:58:02.560Z,99681.98
2023-04-28T02:59:05.818Z,99677.77
2023-04-28T03:00:09.871Z,99678.02
2023-04-28T03:01:14.222Z,99681.53
2023-04-28T03:02:16.747Z,99677.07
2023-04-28T03:03:19.129Z,99687.48
2023-04-28T03:04:22.642Z,99687.41
2023-04-28T03:05:25.814Z,99690.62
2023-04-28T03:06:29.600Z,99685.53
2023-04-28T03:07:32.130Z,99683.94
2023-04-28T03:08:35.558Z,99697.81
2023-04-28T03:09:38.190Z,99685.89
2023-04-28T03:10:41.664Z,99693.57
2023-04-28T03:11:44.178Z,99696.23
2023-04-28T03:12:46.743Z,99694.34
2023-04-28T03:13:49.246Z,99694.34
2023-04-28T03:14:51.633Z,99692.07
2023-04-28T03:15:55.114Z,99692.07
2023-04-28T03:16:59.158Z,99720.37
2023-04-28T03:18:02.681Z,99700.69
2023-04-28T03:19:07.520Z,99718.72
2023-04-28T03:20:12.402Z,99706.63
2023-04-28T03:21:14.974Z,99706.48
2023-04-28T03:22:17.392Z,99707.38
2023-04-28T03:23:19.613Z,99707.38
2023-04-28T03:24:21.863Z,99716.72
2023-04-28T03:25:26.117Z,99713.17
2023-04-28T03:26:29.634Z,99725.28
2023-04-28T03:27:34.019Z,99716.83
2023-04-28T03:28:38.625Z,99729.77
2023-04-28T03:29:41.182Z,99724.77
2023-04-28T03:30:43.856Z,99735.88
2023-04-28T03:31:46.540Z,99727.23
2023-04-28T03:32:49.102Z,99736.69
2023-04-28T03:33:51.703Z,99739.34
2023-04-28T03:34:54.508Z,99735.97
2023-04-28T03:35:56.918Z,99732.22
2023-04-28T03:36:59.784Z,99728.68
2023-04-28T03:38:04.434Z,99735.63
2023-04-28T03:39:07.188Z,99732.98
2023-04-28T03:40:11.302Z,99729.69
2023-04-28T03:41:24.702Z,99729.46
2023-04-28T03:42:31.467Z,99737.22
2023-04-28T03:43:41.719Z,99733.74
2023-04-28T03:44:49.472Z,99733.85
2023-04-28T03:45:52.112Z,99732.41
2023-04-28T03:46:54.926Z,99729.00
2023-04-28T03:47:58.231Z,99729.00
2023-04-28T03:49:03.313Z,99735.97
2023-04-28T03:50:07.510Z,99739.39
2023-04-28T03:51:11.224Z,99739.34
2023-04-28T03:52:13.708Z,99754.08
2023-04-28T03:53:16.797Z,99741.31
2023-04-28T03:54:19.226Z,99739.34
2023-04-28T03:55:21.754Z,99746.20
2023-04-28T03:56:25.434Z,99747.91
2023-04-28T03:57:28.161Z,99745.32
2023-04-28T03:58:30.644Z,99755.73
2023-04-28T03:59:32.890Z,99748.89
2023-04-28T04:00:35.542Z,99752.38
2023-04-28T04:01:39.486Z,99761.00
2023-04-28T04:02:42.626Z,99747.09
2023-04-28T04:03:46.157Z,99750.61
2023-04-28T04:04:49.127Z,99758.30
2023-04-28T04:05:53.050Z,99759.30
2023-04-28T04:06:55.773Z,99758.48
2023-04-28T04:07:59.911Z,99764.56
2023-04-28T04:09:03.055Z,99764.69
2023-04-28T04:10:06.854Z,99768.34
2023-04-28T04:11:12.959Z,99761.52
2023-04-28T04:12:15.456Z,99758.83
2023-04-28T04:13:18.484Z,99785.52
2023-04-28T04:14:20.963Z,99754.59
2023-04-28T04:15:23.740Z,99760.45
2023-04-28T04:16:26.773Z,99756.95
2023-04-28T04:17:31.008Z,99756.13
2023-04-28T04:18:33.634Z,99758.66
2023-04-28T04:19:46.669Z,99756.77
2023-04-28T04:20:49.883Z,99760.95
2023-04-28T04:21:52.812Z,99763.11
2023-04-28T04:22:55.420Z,99760.59
2023-04-28T04:23:57.640Z,99766.73
2023-04-28T04:24:59.855Z,99762.41
2023-04-28T04:26:02.206Z,99763.27
2023-04-28T04:27:04.845Z,99758.92
2023-04-28T04:28:09.171Z,99763.92
2023-04-28T04:29:11.298Z,99779.66
2023-04-28T04:30:14.092Z,99761.73
2023-04-28T04:31:18.416Z,99766.98
2023-04-28T04:32:22.366Z,99763.39
2023-04-28T04:33:25.240Z,99759.81
2023-04-28T04:34:27.797Z,99768.34
2023-04-28T04:35:31.840Z,99766.52
2023-04-28T04:36:34.486Z,99775.26
2023-04-28T04:37:37.792Z,99769.32
2023-04-28T04:38:40.953Z,99765.40
2023-04-28T04:39:52.841Z,99769.69
2023-04-28T04:40:55.245Z,99779.02
2023-04-28T04:41:58.071Z,99768.73
2023-04-28T04:43:02.447Z,99773.83
2023-04-28T04:44:06.722Z,99772.89
2023-04-28T04:45:11.673Z,99778.07
2023-04-28T04:46:14.351Z,99763.64
2023-04-28T04:47:17.802Z,99771.27
2023-04-28T04:48:22.363Z,99757.24
2023-04-28T04:49:25.876Z,99757.11
2023-04-28T04:50:29.086Z,99755.59
2023-04-28T04:51:32.438Z,99757.30
2023-04-28T04:52:35.391Z,99769.48
2023-04-28T04:53:38.100Z,99786.59
2023-04-28T04:54:41.788Z,99777.00
2023-04-28T04:55:45.232Z,99769.25
2023-04-28T04:56:47.825Z,99769.16
2023-04-28T04:57:51.835Z,99776.84
2023-04-28T04:59:13.144Z,99799.98
2023-04-28T05:00:21.348Z,99774.16
2023-04-28T05:01:24.017Z,99775.14
2023-04-28T05:02:27.539Z,99780.97
2023-04-28T05:03:30.826Z,99776.38
2023-04-28T05:04:34.938Z,99771.16
2023-04-28T05:05:38.378Z,99776.28
2023-04-28T05:06:42.825Z,99782.31
2023-04-28T05:07:46.445Z,99775.27
2023-04-28T05:08:49.780Z,99774.39
2023-04-28T05:09:53.774Z,99792.53
2023-04-28T05:10:57.236Z,99780.27
2023-04-28T05:12:00.950Z,99785.09
2023-04-28T05:13:03.873Z,99777.33
2023-04-28T05:14:06.359Z,99775.45
2023-04-28T05:15:10.388Z,99784.91
2023-04-28T05:16:14.795Z,99772.80
2023-04-28T05:17:31.265Z,99774.31
2023-04-28T05:18:33.988Z,99776.01
2023-04-28T05:19:37.372Z,99772.53
2023-04-28T05:20:40.199Z,99777.52
2023-04-28T05:21:42.622Z,99775.83
2023-04-28T05:22:45.673Z,99772.53
2023-04-28T05:23:51.011Z,99778.48
2023-04-28T05:24:53.870Z,99764.67
2023-04-28T05:25:57.568Z,99765.66
2023-04-28T05:27:01.250Z,99756.21
2023-04-28T05:28:05.837Z,99766.29
2023-04-28T05:29:08.213Z,99779.04
2023-04-28T05:30:10.881Z,99769.45
2023-04-28T05:31:13.812Z,99772.92
2023-04-28T05:32:16.404Z,99771.17
2023-04-28T05:33:19.364Z,99768.50
2023-04-28T05:34:23.019Z,99763.98
2023-04-28T05:35:26.494Z,99777.45
2023-04-28T05:36:30.528Z,99780.06
2023-04-28T05:37:33.548Z,99780.92
2023-04-28T05:38:36.836Z,99792.92
2023-04-28T05:39:39.409Z,99789.44
2023-04-28T05:40:42.834Z,99786.74
2023-04-28T05:41:47.637Z,99784.77
2023-04-28T05:42:49.941Z,99789.00
2023-04-28T05:43:52.369Z,99778.56
2023-04-28T05:44:54.793Z,99788.78
2023-04-28T05:45:58.679Z,99810.98
2023-04-28T05:47:01.901Z,99785.98
2023-04-28T05:48:04.860Z,99808.20
2023-04-28T05:49:08.310Z,99806.22
2023-04-28T05:50:13.252Z,99808.95
2023-04-28T05:51:15.673Z,99799.55
2023-04-28T05:52:17.996Z,99791.56
2023-04-28T05:53:20.307Z,99794.03
2023-04-28T05:54:22.832Z,99788.86
2023-04-28T05:55:27.500Z,99788.11
2023-04-28T05:56:30.456Z,99799.08
2023-04-28T05:57:45.396Z,99792.00
2023-04-28T05:58:39.224Z,99781.50
2023-04-28T05:59:42.645Z,99785.59
2023-04-28T06:00:45.719Z,99804.41
2023-04-28T06:01:50.738Z,99788.78
2023-04-28T06:02:54.189Z,99787.72
2023-04-28T06:03:58.527Z,99786.94
2023-04-28T06:05:01.241Z,99790.36
2023-04-28T06:06:07.790Z,99789.53
2023-04-28T06:07:09.223Z,99795.54
2023-04-28T06:08:12.186Z,99790.22
2023-04-28T06:09:14.801Z,99790.91
2023-04-28T06:10:19.056Z,99809.09
2023-04-28T06:11:22.715Z,99793.76
2023-04-28T06:12:25.663Z,99785.13
2023-04-28T06:13:28.465Z,99790.27
2023-04-28T06:14:32.909Z,99793.55
2023-04-28T06:15:35.541Z,99800.31
2023-04-28T06:16:38.624Z,99789.74
2023-04-28T06:17:41.873Z,99792.52
2023-04-28T06:18:47.314Z,99802.90
2023-04-28T06:19:52.028Z,99809.15
2023-04-28T06:20:54.502Z,99794.73
2023-04-28T06:21:56.900Z,99798.94
2023-04-28T06:22:59.686Z,99812.69
2023-04-28T06:24:02.205Z,99804.00
2023-04-28T06:25:06.865Z,99804.00
2023-04-28T06:26:13.406Z,99795.31
2023-04-28T06:27:15.913Z,99812.28
2023-04-28T06:28:18.222Z,99822.67
2023-04-28T06:29:22.614Z,99819.53
2023-04-28T06:30:25.104Z,99804.74
2023-04-28T06:31:27.372Z,99806.20
2023-04-28T06:32:29.947Z,99804.18
2023-04-28T06:33:32.099Z,99822.23
2023-04-28T06:34:36.900Z,99814.45
2023-04-28T06:35:39.472Z,99816.98
2023-04-28T06:36:42.379Z,99810.16
2023-04-28T06:37:46.025Z,99818.83
2023-04-28T06:38:49.359Z,99803.08
2023-04-28T06:39:52.394Z,99804.56
2023-04-28T06:40:55.373Z,99810.45
2023-04-28T06:41:58.029Z,99818.32
2023-04-28T06:43:03.211Z,99813.88
2023-04-28T06:44:08.252Z,99806.05
2023-04-28T06:45:11.569Z,99812.65
2023-04-28T06:46:14.601Z,99817.67
2023-04-28T06:47:18.549Z,99817.73
2023-04-28T06:48:21.228Z,99811.75
2023-04-28T06:49:23.904Z,99812.05
2023-04-28T06:50:26.357Z,99815.03
2023-04-28T06:51:28.351Z,99815.03
2023-04-28T06:52:38.604Z,99826.27
2023-04-28T06:53:36.049Z,99817.63
2023-04-28T06:54:38.708Z,99820.13
2023-04-28T06:55:43.613Z,99824.28
2023-04-28T06:56:46.194Z,99824.98
2023-04-28T06:57:48.522Z,99819.80
2023-04-28T06:58:51.165Z,99833.60
2023-04-28T06:59:53.281Z,99838.50
2023-04-28T07:00:55.808Z,99812.55
2023-04-28T07:01:58.061Z,99813.99
2023-04-28T07:03:01.058Z,99817.42
2023-04-28T07:04:03.799Z,99809.33
2023-04-28T07:05:07.291Z,99811.89
2023-04-28T07:06:10.858Z,99821.17
2023-04-28T07:07:14.110Z,99823.11
2023-04-28T07:08:17.057Z,99818.64
2023-04-28T07:09:19.339Z,99832.28
2023-04-28T07:10:21.459Z,99821.07
2023-04-28T07:11:23.805Z,99820.00
2023-04-28T07:12:27.038Z,99845.33
2023-04-28T07:13:31.167Z,99841.17
2023-04-28T07:14:33.532Z,99825.70
2023-04-28T07:15:35.848Z,99849.19
2023-04-28T07:16:38.632Z,99842.17
2023-04-28T07:17:41.179Z,99839.70
2023-04-28T07:18:43.441Z,99831.19
2023-04-28T07:19:46.363Z,99829.26
2023-04-28T07:20:48.872Z,99828.92
2023-04-28T07:21:52.308Z,99827.55
2023-04-28T07:22:55.055Z,99819.28
2023-04-28T07:23:57.155Z,99819.28
2023-04-28T07:24:59.590Z,99831.95
2023-04-28T07:26:01.791Z,99828.52
2023-04-28T07:27:04.540Z,99831.13
2023-04-28T07:28:07.428Z,99835.10
2023-04-28T07:29:11.799Z,99833.64
2023-04-28T07:30:26.451Z,99843.89
2023-04-28T07:31:18.860Z,99834.30
2023-04-28T07:32:21.028Z,99845.34
2023-04-28T07:33:23.706Z,99839.19
2023-04-28T07:34:26.921Z,99846.25
2023-04-28T07:35:29.164Z,99832.09
2023-04-28T07:36:32.185Z,99843.31
2023-04-28T07:37:34.466Z,99828.94
2023-04-28T07:38:37.095Z,99844.59
2023-04-28T07:39:40.029Z,99856.59
2023-04-28T07:40:43.492Z,99859.13
2023-04-28T07:41:46.154Z,99835.69
2023-04-28T07:42:48.505Z,99824.34
2023-04-28T07:43:50.826Z,99824.34
2023-04-28T07:44:53.061Z,99850.92
2023-04-28T07:45:55.587Z,99840.47
2023-04-28T07:47:00.290Z,99865.78
2023-04-28T07:48:03.104Z,99866.02
2023-04-28T07:49:05.397Z,99851.44
2023-04-28T07:50:09.794Z,99850.44
2023-04-28T07:51:12.091Z,99852.13
2023-04-28T07:52:14.944Z,99838.73
2023-04-28T07:53:17.435Z,99853.90
2023-04-28T07:54:19.890Z,99852.86
2023-04-28T07:55:22.741Z,99849.36
2023-04-28T07:56:25.718Z,99840.42
2023-04-28T07:57:29.820Z,99853.95
2023-04-28T07:58:33.204Z,99860.70
2023-04-28T07:59:37.005Z,99859.01
2023-04-28T08:00:41.016Z,99860.16
2023-04-28T08:01:43.631Z,99876.06
2023-04-28T08:02:45.915Z,99837.03
2023-04-28T08:03:49.709Z,99852.19
2023-04-28T08:04:56.842Z,99845.91
2023-04-28T08:05:59.507Z,99862.40
2023-04-28T08:07:05.351Z,99847.06
2023-04-28T08:08:07.446Z,99844.14
2023-04-28T08:09:09.815Z,99839.09
2023-04-28T08:10:12.599Z,99847.46
2023-04-28T08:11:14.805Z,99864.61
2023-04-28T08:12:17.556Z,99858.25
2023-04-28T08:13:19.855Z,99862.36
2023-04-28T08:14:22.109Z,99865.03
2023-04-28T08:15:25.406Z,99870.98
2023-04-28T08:16:28.018Z,99848.46
2023-04-28T08:17:30.996Z,99850.88
2023-04-28T08:18:34.388Z,99856.72
2023-04-28T08:19:37.836Z,99860.30
2023-04-28T08:20:41.103Z,99861.92
2023-04-28T08:21:43.360Z,99873.87
2023-04-28T08:22:46.594Z,99866.06
2023-04-28T08:23:49.280Z,99857.77
2023-04-28T08:24:51.597Z,99870.87
2023-04-28T08:25:54.219Z,99848.20
2023-04-28T08:26:56.684Z,99850.88
2023-04-28T08:27:58.901Z,99856.72
2023-04-28T08:29:01.491Z,99845.23
2023-04-28T08:30:05.315Z,99836.45
2023-04-28T08:31:08.086Z,99849.30
2023-04-28T08:32:10.978Z,99836.30
2023-04-28T08:33:13.266Z,99847.42
2023-04-28T08:34:16.844Z,99840.41
2023-04-28T08:35:20.212Z,99842.22
2023-04-28T08:36:25.069Z,99833.66
2023-04-28T08:37:27.946Z,99855.41
2023-04-28T08:38:30.667Z,99845.01
2023-04-28T08:39:35.199Z,99856.13
2023-04-28T08:40:37.916Z,99860.00
2023-04-28T08:41:41.001Z,99846.25
2023-04-28T08:42:45.986Z,99854.67
2023-04-28T08:43:49.796Z,99853.70
2023-04-28T08:44:57.312Z,99859.52
2023-04-28T08:46:02.388Z,99853.41
2023-04-28T08:47:14.203Z,99846.32
2023-04-28T08:48:22.424Z,99849.48
2023-04-28T08:49:28.832Z,99840.62
2023-04-28T08:50:33.642Z,99855.17
2023-04-28T08:51:42.059Z,99849.30
2023-04-28T08:52:45.411Z,99850.17
2023-04-28T08:55:02.609Z,99821.23
2023-04-28T08:56:07.873Z,99855.54
2023-04-28T08:57:10.793Z,99849.36
2023-04-28T08:58:13.709Z,99837.62
2023-04-28T08:59:17.669Z,99853.10
2023-04-28T09:00:21.446Z,99860.78
2023-04-28T09:01:25.667Z,99877.30
2023-04-28T09:02:29.096Z,99861.23
2023-04-28T09:03:33.615Z,99860.30
2023-04-28T09:04:37.495Z,99875.66
2023-04-28T09:05:40.496Z,99851.00
2023-04-28T09:06:42.909Z,99875.47
2023-04-28T09:07:49.937Z,99850.88
2023-04-28T09:08:57.160Z,99867.94
2023-04-28T09:10:21.682Z,99873.04
2023-04-28T09:11:25.009Z,99845.23
2023-04-28T09:13:52.611Z,99843.06
2023-04-28T09:14:58.326Z,99845.75
2023-04-28T09:16:02.402Z,99843.77
2023-04-28T09:17:12.978Z,99854.77
2023-04-28T09:18:15.897Z,99850.75
2023-04-28T09:19:18.516Z,99841.39
2023-04-28T09:20:22.382Z,99841.39
2023-04-28T09:21:27.815Z,99858.86
2023-04-28T09:22:33.214Z,99863.20
2023-04-28T09:23:46.173Z,99869.38
2023-04-28T09:24:48.534Z,99876.34
2023-04-28T09:26:05.118Z,99856.74
2023-04-28T09:27:10.909Z,99863.78
2023-04-28T09:28:22.831Z,99861.52
2023-04-28T09:29:25.774Z,99854.98
2023-04-28T09:30:40.915Z,99859.05
2023-04-28T09:31:43.634Z,99856.31
2023-04-28T09:32:46.797Z,99860.68
2023-04-28T09:33:59.996Z,99862.64
2023-04-28T09:35:04.352Z,99854.63
2023-04-28T09:36:07.402Z,99849.70
2023-04-28T09:37:24.310Z,99854.03
2023-04-28T09:38:27.163Z,99877.56
2023-04-28T09:39:32.772Z,99857.12
2023-04-28T09:40:58.947Z,99879.49
2023-04-28T09:42:03.373Z,99847.31
2023-04-28T09:43:18.979Z,99840.97
2023-04-28T09:44:20.952Z,99846.19
2023-04-28T09:45:24.800Z,99842.25
2023-04-28T09:46:30.759Z,99842.75
2023-04-28T09:47:37.890Z,99848.66
2023-04-28T09:48:40.512Z,99850.67
2023-04-28T09:49:56.553Z,99849.98
2023-04-28T09:51:01.748Z,99842.94
2023-04-28T09:52:13.107Z,99838.73
2023-04-28T09:53:18.161Z,99847.70
2023-04-28T09:54:23.014Z,99840.66
2023-04-28T09:55:28.244Z,99836.17
2023-04-28T09:56:32.614Z,99878.89
2023-04-28T09:57:38.162Z,99857.77
2023-04-28T09:58:42.479Z,99853.22
2023-04-28T09:59:49.463Z,99853.75
2023-04-28T10:00:59.866Z,99835.88
2023-04-28T10:02:17.379Z,99838.36
2023-04-28T10:03:11.179Z,99841.44
2023-04-28T10:04:14.795Z,99843.35
2023-04-28T10:05:17.827Z,99848.22
2023-04-28T10:06:20.508Z,99847.17
2023-04-28T10:07:22.844Z,99864.55
2023-04-28T10:08:27.680Z,99863.45
2023-04-28T10:09:32.077Z,99852.17
2023-04-28T10:10:34.745Z,99859.97
2023-04-28T10:11:38.742Z,99859.97
2023-04-28T10:12:43.990Z,99864.49
2023-04-28T10:13:47.204Z,99845.46
2023-04-28T10:14:57.726Z,99866.20
2023-04-28T10:16:05.527Z,99855.44
2023-04-28T10:17:08.161Z,99862.42
2023-04-28T10:19:33.785Z,99838.11
2023-04-28T10:20:37.199Z,99854.64
2023-04-28T10:21:49.303Z,99843.44
2023-04-28T10:23:18.371Z,99837.56
2023-04-28T10:24:25.357Z,99834.93
2023-04-28T10:25:31.494Z,99870.76
2023-04-28T10:26:56.900Z,99853.87
2023-04-28T10:28:01.107Z,99849.37
2023-04-28T10:29:03.405Z,99842.17
2023-04-28T10:30:27.489Z,99844.60
2023-04-28T10:31:23.622Z,99849.23
2023-04-28T10:32:30.863Z,99853.53
2023-04-28T10:33:33.797Z,99845.91
2023-04-28T10:34:35.908Z,99846.70
2023-04-28T10:35:46.001Z,99852.28
2023-04-28T10:36:54.868Z,99859.55
2023-04-28T10:38:13.752Z,99842.67
2023-04-28T10:39:17.191Z,99854.89
2023-04-28T10:40:38.322Z,99856.03
2023-04-28T10:41:41.236Z,99872.69
2023-04-28T10:42:56.388Z,99859.16
2023-04-28T10:43:59.131Z,99847.13
2023-04-28T10:45:02.499Z,99847.17
2023-04-28T10:46:08.164Z,99839.05
2023-04-28T10:47:11.234Z,99839.05
2023-04-28T10:48:13.934Z,99841.19
2023-04-28T10:49:18.581Z,99853.82
2023-04-28T10:50:36.148Z,99862.92
2023-04-28T10:51:28.898Z,99865.29
2023-04-28T10:52:42.123Z,99858.90
2023-04-28T10:53:51.888Z,99852.44
2023-04-28T10:55:33.379Z,99853.42
2023-04-28T10:56:35.748Z,99843.72
2023-04-28T10:57:39.037Z,99852.17
2023-04-28T10:58:43.240Z,99848.45
2023-04-28T10:59:45.509Z,99838.68
2023-04-28T11:00:49.077Z,99847.69
2023-04-28T11:01:52.113Z,99841.99
2023-04-28T11:02:55.631Z,99848.45
2023-04-28T11:04:02.356Z,99854.45
2023-04-28T11:05:12.064Z,99842.47
2023-04-28T11:06:32.833Z,99842.91
2023-04-28T11:07:35.609Z,99840.16
2023-04-28T11:08:37.889Z,99845.97
2023-04-28T11:09:44.064Z,99843.69
2023-04-28T11:11:13.621Z,99846.73
2023-04-28T11:12:16.130Z,99838.61
2023-04-28T11:13:31.129Z,99848.09
2023-04-28T11:14:35.896Z,99843.46
2023-04-28T11:15:39.641Z,99865.03
2023-04-28T11:16:56.224Z,99849.55
2023-04-28T11:18:01.963Z,99882.25
2023-04-28T11:19:05.504Z,99840.37
2023-04-28T11:20:12.205Z,99844.66
2023-04-28T11:21:15.104Z,99845.12
2023-04-28T11:22:19.972Z,99845.36
2023-04-28T11:23:23.826Z,99839.94
2023-04-28T11:25:55.746Z,99824.46
2023-04-28T11:26:59.798Z,99845.66
2023-04-28T11:28:06.982Z,99830.39
2023-04-28T11:29:10.704Z,99821.31
2023-04-28T11:30:22.117Z,99826.51
2023-04-28T11:31:26.894Z,99822.20
2023-04-28T11:32:31.709Z,99829.71
2023-04-28T11:33:37.905Z,99829.53
2023-04-28T11:34:40.495Z,99842.20
2023-04-28T11:35:43.326Z,99860.17
2023-04-28T11:36:46.021Z,99829.97
2023-04-28T11:37:52.487Z,99825.09
2023-04-28T11:38:58.849Z,99828.23
2023-04-28T11:40:12.589Z,99845.94
2023-04-28T11:41:15.165Z,99816.77
2023-04-28T11:42:17.827Z,99815.60
2023-04-28T11:44:33.980Z,99810.53
2023-04-28T11:45:36.554Z,99809.70
2023-04-28T11:46:55.923Z,99803.13
2023-04-28T11:48:00.075Z,99810.02
2023-04-28T11:49:06.012Z,99813.32
2023-04-28T11:50:08.792Z,99798.73
2023-04-28T11:51:33.173Z,99809.36
2023-04-28T11:52:36.589Z,99802.80
2023-04-28T11:53:45.395Z,99797.90
2023-04-28T11:55:01.565Z,99802.09
2023-04-28T11:56:08.947Z,99801.58
2023-04-28T11:57:20.878Z,99798.66
2023-04-28T11:58:24.335Z,99807.73
2023-04-28T11:59:34.191Z,99806.28
2023-04-28T12:00:37.655Z,99803.10
2023-04-28T12:01:55.327Z,99793.94
2023-04-28T12:02:58.097Z,99793.67
2023-04-28T12:04:01.842Z,99789.23
2023-04-28T12:05:08.380Z,99805.58
2023-04-28T12:06:10.954Z,99816.70
2023-04-28T12:07:16.152Z,99807.21
2023-04-28T12:08:29.392Z,99805.53
2023-04-28T12:09:36.204Z,99798.35
2023-04-28T12:10:38.577Z,99800.77
2023-04-28T12:11:52.313Z,99828.13
2023-04-28T12:12:54.980Z,99805.08
2023-04-28T12:14:06.495Z,99804.48
2023-04-28T12:15:09.913Z,99812.70
2023-04-28T12:16:12.701Z,99792.70
2023-04-28T12:17:26.790Z,99805.62
2023-04-28T12:18:29.322Z,99805.74
2023-04-28T12:19:35.109Z,99830.81
2023-04-28T12:20:39.113Z,99822.09
2023-04-28T12:21:42.160Z,99823.73
2023-04-28T12:22:50.137Z,99805.63
2023-04-28T12:23:53.074Z,99811.71
2023-04-28T12:25:10.986Z,99807.66
2023-04-28T12:26:13.983Z,99843.77
2023-04-28T12:27:24.674Z,99808.59
2023-04-28T12:28:41.372Z,99801.17
2023-04-28T12:29:46.043Z,99820.13
2023-04-28T12:30:54.037Z,99819.14
2023-04-28T12:31:56.518Z,99803.80
2023-04-28T12:32:59.642Z,99817.84
2023-04-28T12:34:03.416Z,99812.17
2023-04-28T12:35:07.152Z,99810.69
2023-04-28T12:36:10.239Z,99811.36
2023-04-28T12:37:13.734Z,99806.16
2023-04-28T12:38:16.958Z,99796.64
2023-04-28T12:39:19.452Z,99806.30
2023-04-28T12:40:24.468Z,99805.78
2023-04-28T12:41:26.809Z,99805.08
2023-04-28T12:42:29.153Z,99811.88
2023-04-28T12:43:31.646Z,99810.98